Terminal Aerodrome Forecast
Issued by NWS Wilmington, NC

Home | Current Version | Previous Version | Text Only | Print | Product List | Glossary On
Versions: 1 2 3 4 5 6 7 8 9 10 11 12
000
FTUS42 KILM 271722
TAFMYR
TAF
KMYR 271722Z 2718/2818 13011KT P6SM SCT040
     FM280100 07006KT P6SM SCT050
     FM280900 03006KT P6SM SCT009 SCT020
     FM281300 10009KT P6SM SCT025=

USA.gov is the U.S. government's official web portal to all federal, state and local government web resources and services.